logo
Rechercher aéroport 
image banner adimage banner adimage banner ad
image banner ad

WMAH - Grik

Situé à , Malaysia

ICAO - WMAH, IATA -

Données fournies par Airmate  

Information générale

Coordonnées: N5°25'59" E101°6'55"
Élévation : 420 feet MSL.
 
Voir autres Aéroports à Perak

Données opérationnelles

Special qualification required
Heure actuelle UTC:
Heure actuelle locale:
Météo à : WMKB - Butterworth ( 80 km )
METAR: WMKB 090500Z VRB03KT 6000 FEW020 30/25 Q1009 NOSIG
TAF: TAF WMKB 090500Z 0906/1006 29006KT 9000 FEW020 TEMPO 0909/0912 6000 TSRA FEW017CB
Voir NOTAMs / SUP AIP / TFR affectant cet aéroport [VIEW]
Fréquences de communication: [VIEW]

Pistes:

Identifiant RWYQFULongueur (ft)Largeur (ft)SurfaceLDA (ft)
01149998ASPH
19149998ASPH

Coordonnées de l'aéroport

Adresse: Malaysia

Vue satellite de WMAH